sensor_id;sensor_type;location;lat;lon;timestamp;temperature;humidity
16485;DHT22;8353;47.856;12.344;2022-08-11T00:01:23;21.70;98.40
16485;DHT22;8353;47.856;12.344;2022-08-11T00:03:56;21.70;98.50
16485;DHT22;8353;47.856;12.344;2022-08-11T00:06:30;21.70;98.60
16485;DHT22;8353;47.856;12.344;2022-08-11T00:09:06;21.60;98.60
16485;DHT22;8353;47.856;12.344;2022-08-11T00:11:40;21.60;98.60
16485;DHT22;8353;47.856;12.344;2022-08-11T00:14:18;21.60;98.50
16485;DHT22;8353;47.856;12.344;2022-08-11T00:16:54;21.60;98.60
16485;DHT22;8353;47.856;12.344;2022-08-11T00:19:28;21.60;98.50
16485;DHT22;8353;47.856;12.344;2022-08-11T00:21:59;21.60;98.70
16485;DHT22;8353;47.856;12.344;2022-08-11T00:24:35;21.40;98.90
16485;DHT22;8353;47.856;12.344;2022-08-11T00:27:07;21.50;98.80
16485;DHT22;8353;47.856;12.344;2022-08-11T00:29:38;21.40;98.90
16485;DHT22;8353;47.856;12.344;2022-08-11T00:32:33;21.40;99.10
16485;DHT22;8353;47.856;12.344;2022-08-11T00:35:07;21.30;99.70
16485;DHT22;8353;47.856;12.344;2022-08-11T00:37:38;21.20;99.20
16485;DHT22;8353;47.856;12.344;2022-08-11T00:40:18;21.10;99.50
16485;DHT22;8353;47.856;12.344;2022-08-11T00:43:00;21.10;99.40
16485;DHT22;8353;47.856;12.344;2022-08-11T00:45:38;21.10;99.50
16485;DHT22;8353;47.856;12.344;2022-08-11T00:48:27;21.10;99.30
16485;DHT22;8353;47.856;12.344;2022-08-11T00:51:11;21.20;99.40
16485;DHT22;8353;47.856;12.344;2022-08-11T00:53:48;21.20;99.50
16485;DHT22;8353;47.856;12.344;2022-08-11T00:56:56;21.00;99.80
16485;DHT22;8353;47.856;12.344;2022-08-11T00:59:54;21.00;99.90
16485;DHT22;8353;47.856;12.344;2022-08-11T01:02:44;20.90;99.70
16485;DHT22;8353;47.856;12.344;2022-08-11T01:05:43;20.70;99.90
16485;DHT22;8353;47.856;12.344;2022-08-11T01:08:45;20.40;99.90
16485;DHT22;8353;47.856;12.344;2022-08-11T01:11:45;20.10;99.90
16485;DHT22;8353;47.856;12.344;2022-08-11T01:18:07;20.50;99.90
16485;DHT22;8353;47.856;12.344;2022-08-11T01:24:28;20.60;99.90
16485;DHT22;8353;47.856;12.344;2022-08-11T01:27:20;20.60;99.90
16485;DHT22;8353;47.856;12.344;2022-08-11T01:30:13;20.60;99.90
16485;DHT22;8353;47.856;12.344;2022-08-11T01:36:46;20.30;99.90
16485;DHT22;8353;47.856;12.344;2022-08-11T01:39:42;20.30;99.90
16485;DHT22;8353;47.856;12.344;2022-08-11T01:48:25;20.50;99.90
16485;DHT22;8353;47.856;12.344;2022-08-11T01:54:18;20.60;99.90
16485;DHT22;8353;47.856;12.344;2022-08-11T01:57:09;20.60;99.90
16485;DHT22;8353;47.856;12.344;2022-08-11T01:59:45;20.50;99.90
16485;DHT22;8353;47.856;12.344;2022-08-11T02:02:25;20.50;99.90
16485;DHT22;8353;47.856;12.344;2022-08-11T02:05:22;20.50;99.90
16485;DHT22;8353;47.856;12.344;2022-08-11T02:08:00;20.40;99.90
16485;DHT22;8353;47.856;12.344;2022-08-11T02:10:39;20.40;99.90
16485;DHT22;8353;47.856;12.344;2022-08-11T02:13:35;20.40;99.90
16485;DHT22;8353;47.856;12.344;2022-08-11T02:16:18;20.40;99.90
16485;DHT22;8353;47.856;12.344;2022-08-11T02:18:55;20.40;99.90
16485;DHT22;8353;47.856;12.344;2022-08-11T02:21:53;20.30;99.90
16485;DHT22;8353;47.856;12.344;2022-08-11T02:24:52;20.30;99.90
16485;DHT22;8353;47.856;12.344;2022-08-11T02:27:37;20.30;99.90
16485;DHT22;8353;47.856;12.344;2022-08-11T02:30:13;20.20;99.90
16485;DHT22;8353;47.856;12.344;2022-08-11T02:32:49;20.10;99.90
16485;DHT22;8353;47.856;12.344;2022-08-11T02:35:59;20.10;99.90
16485;DHT22;8353;47.856;12.344;2022-08-11T02:38:39;19.80;99.90
16485;DHT22;8353;47.856;12.344;2022-08-11T02:41:18;19.70;99.90
16485;DHT22;8353;47.856;12.344;2022-08-11T02:44:23;19.50;99.90
16485;DHT22;8353;47.856;12.344;2022-08-11T02:47:05;19.50;99.90
16485;DHT22;8353;47.856;12.344;2022-08-11T02:49:43;19.10;99.90
16485;DHT22;8353;47.856;12.344;2022-08-11T02:52:34;19.20;99.90
16485;DHT22;8353;47.856;12.344;2022-08-11T02:55:17;19.40;99.90
16485;DHT22;8353;47.856;12.344;2022-08-11T02:57:52;19.40;99.90
16485;DHT22;8353;47.856;12.344;2022-08-11T03:00:26;19.20;99.90
16485;DHT22;8353;47.856;12.344;2022-08-11T03:03:14;19.10;99.90
16485;DHT22;8353;47.856;12.344;2022-08-11T03:06:11;18.90;99.90
16485;DHT22;8353;47.856;12.344;2022-08-11T03:08:50;18.70;99.90
16485;DHT22;8353;47.856;12.344;2022-08-11T03:11:42;18.70;99.90
16485;DHT22;8353;47.856;12.344;2022-08-11T03:14:41;18.70;99.90
16485;DHT22;8353;47.856;12.344;2022-08-11T03:17:39;18.80;99.90
16485;DHT22;8353;47.856;12.344;2022-08-11T03:20:23;18.70;99.90
16485;DHT22;8353;47.856;12.344;2022-08-11T03:23:02;18.60;99.90
16485;DHT22;8353;47.856;12.344;2022-08-11T03:25:44;18.70;99.90
16485;DHT22;8353;47.856;12.344;2022-08-11T03:28:25;18.40;99.90
16485;DHT22;8353;47.856;12.344;2022-08-11T03:31:07;18.30;99.90
16485;DHT22;8353;47.856;12.344;2022-08-11T03:34:06;18.40;99.90
16485;DHT22;8353;47.856;12.344;2022-08-11T03:37:02;18.30;99.90
16485;DHT22;8353;47.856;12.344;2022-08-11T03:39:43;18.20;99.90
16485;DHT22;8353;47.856;12.344;2022-08-11T03:42:24;18.50;99.90
16485;DHT22;8353;47.856;12.344;2022-08-11T03:45:04;18.70;99.90
16485;DHT22;8353;47.856;12.344;2022-08-11T03:47:47;18.80;99.90
16485;DHT22;8353;47.856;12.344;2022-08-11T03:50:29;18.80;99.90
16485;DHT22;8353;47.856;12.344;2022-08-11T03:53:12;19.00;99.90
16485;DHT22;8353;47.856;12.344;2022-08-11T03:59:30;19.20;99.90
16485;DHT22;8353;47.856;12.344;2022-08-11T04:02:26;19.10;99.90
16485;DHT22;8353;47.856;12.344;2022-08-11T04:08:41;18.70;99.90
16485;DHT22;8353;47.856;12.344;2022-08-11T04:11:44;18.60;99.90
16485;DHT22;8353;47.856;12.344;2022-08-11T04:14:46;18.50;99.90
16485;DHT22;8353;47.856;12.344;2022-08-11T04:21:25;18.50;99.90
16485;DHT22;8353;47.856;12.344;2022-08-11T04:24:37;18.30;99.90
16485;DHT22;8353;47.856;12.344;2022-08-11T04:30:27;18.40;99.90
16485;DHT22;8353;47.856;12.344;2022-08-11T04:33:41;18.40;99.90
16485;DHT22;8353;47.856;12.344;2022-08-11T04:36:36;18.40;99.90
16485;DHT22;8353;47.856;12.344;2022-08-11T04:39:46;18.40;99.90
16485;DHT22;8353;47.856;12.344;2022-08-11T04:42:48;18.60;99.90
16485;DHT22;8353;47.856;12.344;2022-08-11T04:46:07;18.40;99.90
16485;DHT22;8353;47.856;12.344;2022-08-11T04:49:11;18.10;99.90
16485;DHT22;8353;47.856;12.344;2022-08-11T04:52:22;18.20;99.90
16485;DHT22;8353;47.856;12.344;2022-08-11T04:55:31;18.30;99.90
16485;DHT22;8353;47.856;12.344;2022-08-11T04:58:31;18.20;99.90
16485;DHT22;8353;47.856;12.344;2022-08-11T05:01:34;18.30;99.90
16485;DHT22;8353;47.856;12.344;2022-08-11T05:04:40;18.20;99.90
16485;DHT22;8353;47.856;12.344;2022-08-11T05:11:10;18.30;99.90
16485;DHT22;8353;47.856;12.344;2022-08-11T05:13:51;18.40;99.90
16485;DHT22;8353;47.856;12.344;2022-08-11T05:16:50;18.20;99.90
16485;DHT22;8353;47.856;12.344;2022-08-11T05:19:42;18.50;99.90
16485;DHT22;8353;47.856;12.344;2022-08-11T05:22:33;18.30;99.90
16485;DHT22;8353;47.856;12.344;2022-08-11T05:25:29;18.20;99.90
16485;DHT22;8353;47.856;12.344;2022-08-11T05:28:30;18.10;99.90
16485;DHT22;8353;47.856;12.344;2022-08-11T05:31:31;18.30;99.90
16485;DHT22;8353;47.856;12.344;2022-08-11T05:34:22;18.60;99.90
16485;DHT22;8353;47.856;12.344;2022-08-11T05:37:16;18.70;99.90
16485;DHT22;8353;47.856;12.344;2022-08-11T05:39:54;19.30;99.90
16485;DHT22;8353;47.856;12.344;2022-08-11T05:42:49;19.50;99.90
16485;DHT22;8353;47.856;12.344;2022-08-11T05:45:39;19.80;99.90
16485;DHT22;8353;47.856;12.344;2022-08-11T05:48:32;19.70;99.90
16485;DHT22;8353;47.856;12.344;2022-08-11T05:51:32;19.40;99.90
16485;DHT22;8353;47.856;12.344;2022-08-11T05:54:21;19.50;99.90
16485;DHT22;8353;47.856;12.344;2022-08-11T05:57:17;19.90;99.90
16485;DHT22;8353;47.856;12.344;2022-08-11T05:59:50;20.10;99.90
16485;DHT22;8353;47.856;12.344;2022-08-11T06:02:29;20.10;99.90
16485;DHT22;8353;47.856;12.344;2022-08-11T06:05:00;20.30;99.90
16485;DHT22;8353;47.856;12.344;2022-08-11T06:07:31;20.40;99.90
16485;DHT22;8353;47.856;12.344;2022-08-11T06:10:18;20.50;99.90
16485;DHT22;8353;47.856;12.344;2022-08-11T06:13:03;20.60;99.90
16485;DHT22;8353;47.856;12.344;2022-08-11T06:15:43;20.40;99.90
16485;DHT22;8353;47.856;12.344;2022-08-11T06:18:15;20.30;99.90
16485;DHT22;8353;47.856;12.344;2022-08-11T06:20:47;20.50;99.90
16485;DHT22;8353;47.856;12.344;2022-08-11T06:23:18;20.50;99.90
16485;DHT22;8353;47.856;12.344;2022-08-11T06:25:53;20.70;99.90
16485;DHT22;8353;47.856;12.344;2022-08-11T06:28:29;21.00;99.90
16485;DHT22;8353;47.856;12.344;2022-08-11T06:31:01;20.80;99.90
16485;DHT22;8353;47.856;12.344;2022-08-11T06:33:37;21.00;99.90
16485;DHT22;8353;47.856;12.344;2022-08-11T06:36:20;21.00;99.90
16485;DHT22;8353;47.856;12.344;2022-08-11T06:39:01;21.20;99.90
16485;DHT22;8353;47.856;12.344;2022-08-11T06:41:39;21.40;99.90
16485;DHT22;8353;47.856;12.344;2022-08-11T06:44:19;21.30;99.90
16485;DHT22;8353;47.856;12.344;2022-08-11T06:46:52;21.40;99.90
16485;DHT22;8353;47.856;12.344;2022-08-11T06:49:37;21.40;99.90
16485;DHT22;8353;47.856;12.344;2022-08-11T06:52:29;21.40;99.90
16485;DHT22;8353;47.856;12.344;2022-08-11T06:55:05;21.50;99.90
16485;DHT22;8353;47.856;12.344;2022-08-11T06:57:37;21.50;99.90
16485;DHT22;8353;47.856;12.344;2022-08-11T07:00:29;21.50;99.90
16485;DHT22;8353;47.856;12.344;2022-08-11T07:03:05;21.60;99.90
16485;DHT22;8353;47.856;12.344;2022-08-11T07:05:44;21.80;99.90
16485;DHT22;8353;47.856;12.344;2022-08-11T07:08:30;22.00;99.90
16485;DHT22;8353;47.856;12.344;2022-08-11T07:11:51;22.10;99.90
16485;DHT22;8353;47.856;12.344;2022-08-11T07:14:47;22.10;99.90
16485;DHT22;8353;47.856;12.344;2022-08-11T07:17:48;22.00;99.90
16485;DHT22;8353;47.856;12.344;2022-08-11T07:20:41;22.20;99.90
16485;DHT22;8353;47.856;12.344;2022-08-11T07:23:34;22.60;99.90
16485;DHT22;8353;47.856;12.344;2022-08-11T07:26:25;22.70;99.90
16485;DHT22;8353;47.856;12.344;2022-08-11T07:29:16;22.60;99.90
16485;DHT22;8353;47.856;12.344;2022-08-11T07:31:51;22.70;99.90
16485;DHT22;8353;47.856;12.344;2022-08-11T07:34:24;22.50;99.90
16485;DHT22;8353;47.856;12.344;2022-08-11T07:37:03;22.70;99.90
16485;DHT22;8353;47.856;12.344;2022-08-11T07:39:35;22.60;99.90
16485;DHT22;8353;47.856;12.344;2022-08-11T07:42:10;22.80;99.90
16485;DHT22;8353;47.856;12.344;2022-08-11T07:45:03;23.00;99.90
16485;DHT22;8353;47.856;12.344;2022-08-11T07:48:03;23.00;99.90
16485;DHT22;8353;47.856;12.344;2022-08-11T07:50:51;23.30;99.90
16485;DHT22;8353;47.856;12.344;2022-08-11T07:53:42;23.40;99.90
16485;DHT22;8353;47.856;12.344;2022-08-11T07:56:13;23.60;99.90
16485;DHT22;8353;47.856;12.344;2022-08-11T07:58:44;23.70;99.90
16485;DHT22;8353;47.856;12.344;2022-08-11T08:01:33;24.00;99.90
16485;DHT22;8353;47.856;12.344;2022-08-11T08:04:22;24.00;99.90
16485;DHT22;8353;47.856;12.344;2022-08-11T08:07:11;23.90;99.90
16485;DHT22;8353;47.856;12.344;2022-08-11T08:10:00;24.10;99.90
16485;DHT22;8353;47.856;12.344;2022-08-11T08:12:49;24.20;99.90
16485;DHT22;8353;47.856;12.344;2022-08-11T08:15:38;24.30;99.90
16485;DHT22;8353;47.856;12.344;2022-08-11T08:18:28;24.20;99.90
16485;DHT22;8353;47.856;12.344;2022-08-11T08:21:04;24.60;99.90
16485;DHT22;8353;47.856;12.344;2022-08-11T08:23:44;24.90;99.90
16485;DHT22;8353;47.856;12.344;2022-08-11T08:26:16;24.90;99.90
16485;DHT22;8353;47.856;12.344;2022-08-11T08:29:05;24.70;99.90
16485;DHT22;8353;47.856;12.344;2022-08-11T08:31:54;24.70;99.90
16485;DHT22;8353;47.856;12.344;2022-08-11T08:34:26;24.70;99.90
16485;DHT22;8353;47.856;12.344;2022-08-11T08:36:57;24.90;99.90
16485;DHT22;8353;47.856;12.344;2022-08-11T08:39:28;24.80;99.90
16485;DHT22;8353;47.856;12.344;2022-08-11T08:42:07;24.50;99.90
16485;DHT22;8353;47.856;12.344;2022-08-11T08:44:43;24.80;99.90
16485;DHT22;8353;47.856;12.344;2022-08-11T08:47:15;25.10;99.90
16485;DHT22;8353;47.856;12.344;2022-08-11T08:49:48;25.40;99.90
16485;DHT22;8353;47.856;12.344;2022-08-11T08:52:22;25.20;99.90
16485;DHT22;8353;47.856;12.344;2022-08-11T08:54:55;25.30;99.90
16485;DHT22;8353;47.856;12.344;2022-08-11T08:57:31;25.40;99.90
16485;DHT22;8353;47.856;12.344;2022-08-11T09:00:04;25.80;99.90
16485;DHT22;8353;47.856;12.344;2022-08-11T09:02:36;25.90;99.90
16485;DHT22;8353;47.856;12.344;2022-08-11T09:05:07;25.80;99.90
16485;DHT22;8353;47.856;12.344;2022-08-11T09:07:39;25.90;99.90
16485;DHT22;8353;47.856;12.344;2022-08-11T09:10:10;26.10;99.90
16485;DHT22;8353;47.856;12.344;2022-08-11T09:12:51;26.30;99.90
16485;DHT22;8353;47.856;12.344;2022-08-11T09:15:24;26.40;99.90
16485;DHT22;8353;47.856;12.344;2022-08-11T09:17:59;26.60;99.90
16485;DHT22;8353;47.856;12.344;2022-08-11T09:20:35;26.60;99.10
16485;DHT22;8353;47.856;12.344;2022-08-11T09:23:07;26.30;98.60
16485;DHT22;8353;47.856;12.344;2022-08-11T09:25:58;25.90;99.30
16485;DHT22;8353;47.856;12.344;2022-08-11T09:28:49;25.70;99.80
16485;DHT22;8353;47.856;12.344;2022-08-11T09:31:20;25.80;99.90
16485;DHT22;8353;47.856;12.344;2022-08-11T09:33:53;25.80;99.60
16485;DHT22;8353;47.856;12.344;2022-08-11T09:36:25;25.70;99.50
16485;DHT22;8353;47.856;12.344;2022-08-11T09:39:14;26.00;99.50
16485;DHT22;8353;47.856;12.344;2022-08-11T09:42:03;26.10;98.20
16485;DHT22;8353;47.856;12.344;2022-08-11T09:44:36;26.00;98.90
16485;DHT22;8353;47.856;12.344;2022-08-11T09:47:18;26.20;99.20
16485;DHT22;8353;47.856;12.344;2022-08-11T09:49:54;26.60;99.10
16485;DHT22;8353;47.856;12.344;2022-08-11T09:52:31;26.70;99.30
16485;DHT22;8353;47.856;12.344;2022-08-11T09:55:04;26.70;98.00
16485;DHT22;8353;47.856;12.344;2022-08-11T09:57:43;27.10;98.20
16485;DHT22;8353;47.856;12.344;2022-08-11T10:00:35;27.20;99.00
16485;DHT22;8353;47.856;12.344;2022-08-11T10:03:10;27.30;97.10
16485;DHT22;8353;47.856;12.344;2022-08-11T10:05:45;27.40;98.30
16485;DHT22;8353;47.856;12.344;2022-08-11T10:08:36;27.40;96.40
16485;DHT22;8353;47.856;12.344;2022-08-11T10:11:10;27.70;96.50
16485;DHT22;8353;47.856;12.344;2022-08-11T10:13:43;27.70;96.00
16485;DHT22;8353;47.856;12.344;2022-08-11T10:16:36;27.30;96.90
16485;DHT22;8353;47.856;12.344;2022-08-11T10:19:10;27.20;95.60
16485;DHT22;8353;47.856;12.344;2022-08-11T10:21:44;27.10;95.90
16485;DHT22;8353;47.856;12.344;2022-08-11T10:24:38;27.70;96.90
16485;DHT22;8353;47.856;12.344;2022-08-11T10:27:28;27.90;94.70
16485;DHT22;8353;47.856;12.344;2022-08-11T10:30:00;27.80;94.30
16485;DHT22;8353;47.856;12.344;2022-08-11T10:32:50;27.70;94.30
16485;DHT22;8353;47.856;12.344;2022-08-11T10:35:41;27.50;95.90
16485;DHT22;8353;47.856;12.344;2022-08-11T10:38:13;27.90;95.20
16485;DHT22;8353;47.856;12.344;2022-08-11T10:40:46;28.10;94.10
16485;DHT22;8353;47.856;12.344;2022-08-11T10:43:39;27.80;93.90
16485;DHT22;8353;47.856;12.344;2022-08-11T10:46:10;27.70;95.10
16485;DHT22;8353;47.856;12.344;2022-08-11T10:49:01;27.90;95.80
16485;DHT22;8353;47.856;12.344;2022-08-11T10:51:32;28.40;93.40
16485;DHT22;8353;47.856;12.344;2022-08-11T10:54:21;28.30;94.80
16485;DHT22;8353;47.856;12.344;2022-08-11T10:57:11;28.80;93.50
16485;DHT22;8353;47.856;12.344;2022-08-11T11:00:03;28.90;92.40
16485;DHT22;8353;47.856;12.344;2022-08-11T11:02:35;29.00;94.30
16485;DHT22;8353;47.856;12.344;2022-08-11T11:05:13;29.30;93.20
16485;DHT22;8353;47.856;12.344;2022-08-11T11:07:51;29.60;93.20
16485;DHT22;8353;47.856;12.344;2022-08-11T11:10:24;29.70;93.40
16485;DHT22;8353;47.856;12.344;2022-08-11T11:12:57;29.60;91.40
16485;DHT22;8353;47.856;12.344;2022-08-11T11:15:46;29.20;90.50
16485;DHT22;8353;47.856;12.344;2022-08-11T11:18:35;28.80;91.30
16485;DHT22;8353;47.856;12.344;2022-08-11T11:21:10;28.50;91.00
16485;DHT22;8353;47.856;12.344;2022-08-11T11:23:52;28.50;91.50
16485;DHT22;8353;47.856;12.344;2022-08-11T11:26:36;28.90;91.70
16485;DHT22;8353;47.856;12.344;2022-08-11T11:29:27;28.90;90.90
16485;DHT22;8353;47.856;12.344;2022-08-11T11:32:22;28.60;92.50
16485;DHT22;8353;47.856;12.344;2022-08-11T11:35:24;28.80;91.20
16485;DHT22;8353;47.856;12.344;2022-08-11T11:37:59;28.60;92.00
16485;DHT22;8353;47.856;12.344;2022-08-11T11:40:31;29.00;92.50
16485;DHT22;8353;47.856;12.344;2022-08-11T11:43:03;29.20;91.70
16485;DHT22;8353;47.856;12.344;2022-08-11T11:45:33;29.00;91.20
16485;DHT22;8353;47.856;12.344;2022-08-11T11:48:04;28.90;90.70
16485;DHT22;8353;47.856;12.344;2022-08-11T11:50:37;29.00;92.40
16485;DHT22;8353;47.856;12.344;2022-08-11T11:53:10;29.80;90.30
16485;DHT22;8353;47.856;12.344;2022-08-11T11:55:43;29.60;90.30
16485;DHT22;8353;47.856;12.344;2022-08-11T11:58:14;29.50;91.20
16485;DHT22;8353;47.856;12.344;2022-08-11T12:01:03;29.90;90.90
16485;DHT22;8353;47.856;12.344;2022-08-11T12:03:49;29.70;90.00
16485;DHT22;8353;47.856;12.344;2022-08-11T12:06:23;29.40;90.80
16485;DHT22;8353;47.856;12.344;2022-08-11T12:08:57;29.90;91.90
16485;DHT22;8353;47.856;12.344;2022-08-11T12:11:29;30.00;88.30
16485;DHT22;8353;47.856;12.344;2022-08-11T12:14:19;30.10;89.00
16485;DHT22;8353;47.856;12.344;2022-08-11T12:16:51;30.30;87.80
16485;DHT22;8353;47.856;12.344;2022-08-11T12:19:23;30.40;88.20
16485;DHT22;8353;47.856;12.344;2022-08-11T12:21:58;30.40;90.10
16485;DHT22;8353;47.856;12.344;2022-08-11T12:24:48;30.70;88.30
16485;DHT22;8353;47.856;12.344;2022-08-11T12:27:37;30.40;87.70
16485;DHT22;8353;47.856;12.344;2022-08-11T12:30:09;30.20;88.20
16485;DHT22;8353;47.856;12.344;2022-08-11T12:32:42;30.00;87.10
16485;DHT22;8353;47.856;12.344;2022-08-11T12:35:14;30.10;88.70
16485;DHT22;8353;47.856;12.344;2022-08-11T12:37:48;30.40;87.50
16485;DHT22;8353;47.856;12.344;2022-08-11T12:40:24;30.60;89.50
16485;DHT22;8353;47.856;12.344;2022-08-11T12:43:15;31.10;90.50
16485;DHT22;8353;47.856;12.344;2022-08-11T12:46:06;31.00;84.50
16485;DHT22;8353;47.856;12.344;2022-08-11T12:48:43;30.80;86.70
16485;DHT22;8353;47.856;12.344;2022-08-11T12:51:34;31.00;86.80
16485;DHT22;8353;47.856;12.344;2022-08-11T12:54:26;31.20;84.90
16485;DHT22;8353;47.856;12.344;2022-08-11T12:57:00;30.80;83.30
16485;DHT22;8353;47.856;12.344;2022-08-11T12:59:49;30.50;84.40
16485;DHT22;8353;47.856;12.344;2022-08-11T13:02:39;30.50;85.30
16485;DHT22;8353;47.856;12.344;2022-08-11T13:05:28;30.40;83.50
16485;DHT22;8353;47.856;12.344;2022-08-11T13:08:02;30.80;85.00
16485;DHT22;8353;47.856;12.344;2022-08-11T13:10:34;30.90;87.00
16485;DHT22;8353;47.856;12.344;2022-08-11T13:13:24;31.20;82.80
16485;DHT22;8353;47.856;12.344;2022-08-11T13:15:56;30.90;85.20
16485;DHT22;8353;47.856;12.344;2022-08-11T13:18:27;30.90;82.90
16485;DHT22;8353;47.856;12.344;2022-08-11T13:20:58;30.70;80.70
16485;DHT22;8353;47.856;12.344;2022-08-11T13:23:30;30.40;84.90
16485;DHT22;8353;47.856;12.344;2022-08-11T13:26:04;31.20;85.50
16485;DHT22;8353;47.856;12.344;2022-08-11T13:28:39;31.60;81.50
16485;DHT22;8353;47.856;12.344;2022-08-11T13:31:10;31.70;81.00
16485;DHT22;8353;47.856;12.344;2022-08-11T13:33:46;31.70;82.20
16485;DHT22;8353;47.856;12.344;2022-08-11T13:36:18;31.80;79.70
16485;DHT22;8353;47.856;12.344;2022-08-11T13:38:50;32.00;81.00
16485;DHT22;8353;47.856;12.344;2022-08-11T13:41:24;32.50;83.10
16485;DHT22;8353;47.856;12.344;2022-08-11T13:44:10;32.40;82.90
16485;DHT22;8353;47.856;12.344;2022-08-11T13:46:42;31.70;79.10
16485;DHT22;8353;47.856;12.344;2022-08-11T13:49:19;31.10;82.50
16485;DHT22;8353;47.856;12.344;2022-08-11T13:51:51;31.10;81.50
16485;DHT22;8353;47.856;12.344;2022-08-11T13:54:26;31.50;83.30
16485;DHT22;8353;47.856;12.344;2022-08-11T13:57:02;31.90;81.90
16485;DHT22;8353;47.856;12.344;2022-08-11T13:59:36;31.90;80.30
16485;DHT22;8353;47.856;12.344;2022-08-11T14:02:12;31.40;79.30
16485;DHT22;8353;47.856;12.344;2022-08-11T14:04:48;30.90;80.40
16485;DHT22;8353;47.856;12.344;2022-08-11T14:07:23;30.90;85.20
16485;DHT22;8353;47.856;12.344;2022-08-11T14:09:57;31.30;80.70
16485;DHT22;8353;47.856;12.344;2022-08-11T14:12:30;31.50;80.20
16485;DHT22;8353;47.856;12.344;2022-08-11T14:15:22;31.50;81.10
16485;DHT22;8353;47.856;12.344;2022-08-11T14:17:56;31.60;81.90
16485;DHT22;8353;47.856;12.344;2022-08-11T14:20:33;31.90;81.00
16485;DHT22;8353;47.856;12.344;2022-08-11T14:23:18;31.90;81.00
16485;DHT22;8353;47.856;12.344;2022-08-11T14:25:53;31.90;80.30
16485;DHT22;8353;47.856;12.344;2022-08-11T14:28:45;31.90;81.90
16485;DHT22;8353;47.856;12.344;2022-08-11T14:31:18;31.70;84.90
16485;DHT22;8353;47.856;12.344;2022-08-11T14:33:49;32.00;80.50
16485;DHT22;8353;47.856;12.344;2022-08-11T14:36:24;32.20;82.10
16485;DHT22;8353;47.856;12.344;2022-08-11T14:38:55;32.20;77.20
16485;DHT22;8353;47.856;12.344;2022-08-11T14:41:26;31.80;77.90
16485;DHT22;8353;47.856;12.344;2022-08-11T14:44:16;31.70;80.60
16485;DHT22;8353;47.856;12.344;2022-08-11T14:47:06;31.40;78.40
16485;DHT22;8353;47.856;12.344;2022-08-11T14:49:43;31.30;79.20
16485;DHT22;8353;47.856;12.344;2022-08-11T14:52:16;31.00;77.20
16485;DHT22;8353;47.856;12.344;2022-08-11T14:54:51;30.80;80.50
16485;DHT22;8353;47.856;12.344;2022-08-11T14:57:41;30.80;78.10
16485;DHT22;8353;47.856;12.344;2022-08-11T15:00:14;30.70;81.00
16485;DHT22;8353;47.856;12.344;2022-08-11T15:02:48;31.00;77.80
16485;DHT22;8353;47.856;12.344;2022-08-11T15:05:38;30.80;77.30
16485;DHT22;8353;47.856;12.344;2022-08-11T15:08:12;30.80;77.10
16485;DHT22;8353;47.856;12.344;2022-08-11T15:10:44;31.00;76.30
16485;DHT22;8353;47.856;12.344;2022-08-11T15:13:16;31.10;79.40
16485;DHT22;8353;47.856;12.344;2022-08-11T15:15:47;31.00;79.60
16485;DHT22;8353;47.856;12.344;2022-08-11T15:18:37;30.80;78.40
16485;DHT22;8353;47.856;12.344;2022-08-11T15:21:09;30.50;81.50
16485;DHT22;8353;47.856;12.344;2022-08-11T15:23:58;30.30;80.70
16485;DHT22;8353;47.856;12.344;2022-08-11T15:26:47;30.40;82.90
16485;DHT22;8353;47.856;12.344;2022-08-11T15:29:37;30.50;82.30
16485;DHT22;8353;47.856;12.344;2022-08-11T15:32:29;30.80;83.20
16485;DHT22;8353;47.856;12.344;2022-08-11T15:35:19;30.80;80.20
16485;DHT22;8353;47.856;12.344;2022-08-11T15:38:09;30.60;79.60
16485;DHT22;8353;47.856;12.344;2022-08-11T15:40:43;30.60;79.30
16485;DHT22;8353;47.856;12.344;2022-08-11T15:43:37;30.20;79.30
16485;DHT22;8353;47.856;12.344;2022-08-11T15:46:30;29.80;80.60
16485;DHT22;8353;47.856;12.344;2022-08-11T15:49:03;29.40;81.80
16485;DHT22;8353;47.856;12.344;2022-08-11T15:51:43;29.60;81.70
16485;DHT22;8353;47.856;12.344;2022-08-11T15:54:17;29.50;83.70
16485;DHT22;8353;47.856;12.344;2022-08-11T15:56:50;29.60;80.30
16485;DHT22;8353;47.856;12.344;2022-08-11T15:59:22;29.20;81.30
16485;DHT22;8353;47.856;12.344;2022-08-11T16:02:14;29.20;81.50
16485;DHT22;8353;47.856;12.344;2022-08-11T16:05:15;29.10;83.60
16485;DHT22;8353;47.856;12.344;2022-08-11T16:07:49;29.00;84.50
16485;DHT22;8353;47.856;12.344;2022-08-11T16:10:21;29.10;84.60
16485;DHT22;8353;47.856;12.344;2022-08-11T16:12:56;29.30;85.20
16485;DHT22;8353;47.856;12.344;2022-08-11T16:15:47;29.50;85.10
16485;DHT22;8353;47.856;12.344;2022-08-11T16:18:42;29.60;84.70
16485;DHT22;8353;47.856;12.344;2022-08-11T16:21:17;29.80;83.70
16485;DHT22;8353;47.856;12.344;2022-08-11T16:23:56;29.60;82.90
16485;DHT22;8353;47.856;12.344;2022-08-11T16:26:29;29.40;81.10
16485;DHT22;8353;47.856;12.344;2022-08-11T16:29:00;29.00;81.80
16485;DHT22;8353;47.856;12.344;2022-08-11T16:31:34;29.10;83.70
16485;DHT22;8353;47.856;12.344;2022-08-11T16:34:06;29.00;83.20
16485;DHT22;8353;47.856;12.344;2022-08-11T16:36:58;29.10;83.10
16485;DHT22;8353;47.856;12.344;2022-08-11T16:39:57;29.30;83.10
16485;DHT22;8353;47.856;12.344;2022-08-11T16:42:28;29.40;81.90
16485;DHT22;8353;47.856;12.344;2022-08-11T16:45:16;29.40;83.30
16485;DHT22;8353;47.856;12.344;2022-08-11T16:48:06;29.60;83.30
16485;DHT22;8353;47.856;12.344;2022-08-11T16:50:38;29.60;83.20
16485;DHT22;8353;47.856;12.344;2022-08-11T16:53:10;29.50;83.30
16485;DHT22;8353;47.856;12.344;2022-08-11T16:55:43;29.40;84.00
16485;DHT22;8353;47.856;12.344;2022-08-11T16:58:14;29.30;83.90
16485;DHT22;8353;47.856;12.344;2022-08-11T17:01:02;29.00;83.90
16485;DHT22;8353;47.856;12.344;2022-08-11T17:03:34;28.80;85.40
16485;DHT22;8353;47.856;12.344;2022-08-11T17:06:27;28.70;84.90
16485;DHT22;8353;47.856;12.344;2022-08-11T17:09:19;29.00;86.30
16485;DHT22;8353;47.856;12.344;2022-08-11T17:12:11;29.10;86.00
16485;DHT22;8353;47.856;12.344;2022-08-11T17:15:02;29.00;82.10
16485;DHT22;8353;47.856;12.344;2022-08-11T17:17:58;28.80;84.50
16485;DHT22;8353;47.856;12.344;2022-08-11T17:20:30;28.70;83.60
16485;DHT22;8353;47.856;12.344;2022-08-11T17:23:03;28.80;84.40
16485;DHT22;8353;47.856;12.344;2022-08-11T17:25:53;28.90;82.90
16485;DHT22;8353;47.856;12.344;2022-08-11T17:28:26;28.80;84.50
16485;DHT22;8353;47.856;12.344;2022-08-11T17:30:57;28.90;84.90
16485;DHT22;8353;47.856;12.344;2022-08-11T17:33:46;28.90;84.20
16485;DHT22;8353;47.856;12.344;2022-08-11T17:36:35;28.80;83.60
16485;DHT22;8353;47.856;12.344;2022-08-11T17:39:11;28.40;82.30
16485;DHT22;8353;47.856;12.344;2022-08-11T17:41:43;28.10;84.10
16485;DHT22;8353;47.856;12.344;2022-08-11T17:44:33;28.00;84.70